sensor_id;sensor_type;location;lat;lon;timestamp;pressure;altitude;pressure_sealevel;temperature;humidity
62111;BME280;48102;47.526;19.072;2023-08-24T03:36:28;100485.78;;;20.78;100.00
62111;BME280;48102;47.526;19.072;2023-08-24T03:39:31;100496.19;;;20.71;100.00
62111;BME280;48102;47.526;19.072;2023-08-24T03:42:35;100490.72;;;20.73;100.00
62111;BME280;48102;47.526;19.072;2023-08-24T03:45:38;100493.41;;;20.73;100.00
62111;BME280;48102;47.526;19.072;2023-08-24T03:48:41;100490.97;;;20.70;100.00
62111;BME280;48102;47.526;19.072;2023-08-24T03:51:44;100496.50;;;20.68;100.00
62111;BME280;48102;47.526;19.072;2023-08-24T03:54:47;100495.75;;;20.66;100.00
62111;BME280;48102;47.526;19.072;2023-08-24T03:57:52;100496.75;;;20.65;100.00
62111;BME280;48102;47.526;19.072;2023-08-24T04:00:59;100501.13;;;20.66;100.00
62111;BME280;48102;47.526;19.072;2023-08-24T04:04:01;100494.91;;;20.66;100.00
62111;BME280;48102;47.526;19.072;2023-08-24T04:07:04;100501.25;;;20.65;100.00
62111;BME280;48102;47.526;19.072;2023-08-24T04:10:08;100497.44;;;20.67;100.00
62111;BME280;48102;47.526;19.072;2023-08-24T04:13:11;100506.91;;;20.71;100.00
62111;BME280;48102;47.526;19.072;2023-08-24T04:16:14;100505.78;;;20.74;100.00
62111;BME280;48102;47.526;19.072;2023-08-24T04:19:17;100511.31;;;20.82;100.00
62111;BME280;48102;47.526;19.072;2023-08-24T04:22:20;100512.56;;;20.88;100.00
62111;BME280;48102;47.526;19.072;2023-08-24T04:25:23;100511.16;;;20.93;100.00
62111;BME280;48102;47.526;19.072;2023-08-24T04:28:25;100512.47;;;20.99;100.00
62111;BME280;48102;47.526;19.072;2023-08-24T04:31:28;100513.16;;;21.11;100.00
62111;BME280;48102;47.526;19.072;2023-08-24T04:34:31;100516.56;;;21.22;100.00
62111;BME280;48102;47.526;19.072;2023-08-24T04:37:34;100520.97;;;21.33;100.00
62111;BME280;48102;47.526;19.072;2023-08-24T04:40:49;100513.94;;;21.42;100.00
62111;BME280;48102;47.526;19.072;2023-08-24T04:43:52;100518.00;;;21.56;100.00
62111;BME280;48102;47.526;19.072;2023-08-24T04:46:55;100521.09;;;21.61;100.00
62111;BME280;48102;47.526;19.072;2023-08-24T04:49:58;100515.59;;;21.72;100.00
62111;BME280;48102;47.526;19.072;2023-08-24T04:53:01;100518.37;;;21.80;100.00
62111;BME280;48102;47.526;19.072;2023-08-24T04:56:03;100523.56;;;21.91;100.00
62111;BME280;48102;47.526;19.072;2023-08-24T04:59:06;100529.63;;;22.03;100.00
62111;BME280;48102;47.526;19.072;2023-08-24T05:02:10;100532.31;;;22.13;100.00
62111;BME280;48102;47.526;19.072;2023-08-24T05:05:13;100537.50;;;22.24;100.00
62111;BME280;48102;47.526;19.072;2023-08-24T05:08:19;100545.63;;;22.32;100.00
62111;BME280;48102;47.526;19.072;2023-08-24T05:11:24;100539.41;;;22.41;100.00
62111;BME280;48102;47.526;19.072;2023-08-24T05:14:28;100550.84;;;22.43;100.00
62111;BME280;48102;47.526;19.072;2023-08-24T05:17:31;100544.03;;;22.49;100.00
62111;BME280;48102;47.526;19.072;2023-08-24T05:20:34;100545.81;;;22.58;100.00
62111;BME280;48102;47.526;19.072;2023-08-24T05:23:37;100549.31;;;22.68;100.00
62111;BME280;48102;47.526;19.072;2023-08-24T05:26:39;100544.03;;;22.76;100.00
62111;BME280;48102;47.526;19.072;2023-08-24T05:29:43;100542.75;;;22.81;100.00
62111;BME280;48102;47.526;19.072;2023-08-24T05:32:45;100542.53;;;22.92;100.00
62111;BME280;48102;47.526;19.072;2023-08-24T05:35:49;100548.09;;;23.08;100.00
62111;BME280;48102;47.526;19.072;2023-08-24T05:38:52;100547.06;;;23.19;100.00
62111;BME280;48102;47.526;19.072;2023-08-24T05:42:08;100555.03;;;23.28;100.00
62111;BME280;48102;47.526;19.072;2023-08-24T05:45:11;100561.63;;;23.34;100.00
62111;BME280;48102;47.526;19.072;2023-08-24T05:48:15;100550.97;;;23.42;100.00
62111;BME280;48102;47.526;19.072;2023-08-24T05:51:17;100549.25;;;23.59;100.00
62111;BME280;48102;47.526;19.072;2023-08-24T05:54:20;100555.94;;;23.73;100.00
62111;BME280;48102;47.526;19.072;2023-08-24T05:57:23;100550.47;;;23.83;100.00
62111;BME280;48102;47.526;19.072;2023-08-24T06:00:26;100561.84;;;23.94;100.00
62111;BME280;48102;47.526;19.072;2023-08-24T06:03:29;100560.25;;;24.10;100.00
62111;BME280;48102;47.526;19.072;2023-08-24T06:06:32;100556.13;;;24.23;100.00
62111;BME280;48102;47.526;19.072;2023-08-24T06:09:35;100553.81;;;24.28;100.00
62111;BME280;48102;47.526;19.072;2023-08-24T06:12:38;100548.78;;;24.34;100.00
62111;BME280;48102;47.526;19.072;2023-08-24T06:15:44;100554.94;;;24.44;100.00
62111;BME280;48102;47.526;19.072;2023-08-24T06:18:47;100552.13;;;24.53;100.00
62111;BME280;48102;47.526;19.072;2023-08-24T06:21:52;100554.19;;;24.68;100.00
62111;BME280;48102;47.526;19.072;2023-08-24T06:24:55;100556.09;;;24.84;100.00
62111;BME280;48102;47.526;19.072;2023-08-24T06:28:02;100562.00;;;24.95;100.00
62111;BME280;48102;47.526;19.072;2023-08-24T06:31:06;100563.44;;;25.16;100.00
62111;BME280;48102;47.526;19.072;2023-08-24T06:34:12;100556.88;;;25.10;100.00
62111;BME280;48102;47.526;19.072;2023-08-24T06:37:15;100560.59;;;25.17;100.00
62111;BME280;48102;47.526;19.072;2023-08-24T06:40:18;100566.19;;;25.32;100.00
62111;BME280;48102;47.526;19.072;2023-08-24T06:43:20;100559.47;;;25.44;100.00
62111;BME280;48102;47.526;19.072;2023-08-24T06:46:23;100565.38;;;25.56;100.00
62111;BME280;48102;47.526;19.072;2023-08-24T06:49:26;100560.31;;;25.53;100.00
62111;BME280;48102;47.526;19.072;2023-08-24T06:52:29;100564.38;;;25.73;100.00
62111;BME280;48102;47.526;19.072;2023-08-24T06:55:32;100569.44;;;25.85;100.00
62111;BME280;48102;47.526;19.072;2023-08-24T06:58:35;100566.91;;;25.99;100.00
62111;BME280;48102;47.526;19.072;2023-08-24T07:01:37;100565.69;;;26.10;100.00
62111;BME280;48102;47.526;19.072;2023-08-24T07:04:40;100564.31;;;26.22;100.00
62111;BME280;48102;47.526;19.072;2023-08-24T07:07:43;100566.16;;;26.30;100.00
62111;BME280;48102;47.526;19.072;2023-08-24T07:10:47;100559.88;;;26.46;100.00
62111;BME280;48102;47.526;19.072;2023-08-24T07:13:49;100562.03;;;26.59;100.00
62111;BME280;48102;47.526;19.072;2023-08-24T07:16:53;100561.19;;;26.58;100.00
62111;BME280;48102;47.526;19.072;2023-08-24T07:19:56;100562.00;;;26.67;100.00
62111;BME280;48102;47.526;19.072;2023-08-24T07:22:59;100560.13;;;26.67;100.00
62111;BME280;48102;47.526;19.072;2023-08-24T07:26:02;100559.25;;;26.75;100.00
62111;BME280;48102;47.526;19.072;2023-08-24T07:29:05;100565.13;;;26.87;100.00
62111;BME280;48102;47.526;19.072;2023-08-24T07:32:08;100568.09;;;26.69;100.00
62111;BME280;48102;47.526;19.072;2023-08-24T07:35:11;100565.00;;;26.72;100.00
62111;BME280;48102;47.526;19.072;2023-08-24T07:38:14;100561.66;;;27.01;100.00
62111;BME280;48102;47.526;19.072;2023-08-24T07:41:17;100555.59;;;27.30;100.00
62111;BME280;48102;47.526;19.072;2023-08-24T07:44:20;100556.47;;;27.45;97.96
62111;BME280;48102;47.526;19.072;2023-08-24T07:47:23;100562.66;;;27.54;95.85
62111;BME280;48102;47.526;19.072;2023-08-24T07:50:26;100563.38;;;27.71;95.38
62111;BME280;48102;47.526;19.072;2023-08-24T07:53:30;100556.59;;;27.75;92.47
62111;BME280;48102;47.526;19.072;2023-08-24T07:56:33;100556.09;;;27.71;92.75
62111;BME280;48102;47.526;19.072;2023-08-24T07:59:36;100567.38;;;27.83;90.81
62111;BME280;48102;47.526;19.072;2023-08-24T08:02:38;100564.72;;;27.98;91.52
62111;BME280;48102;47.526;19.072;2023-08-24T08:05:41;100569.09;;;28.14;87.25
62111;BME280;48102;47.526;19.072;2023-08-24T08:08:44;100567.91;;;28.31;80.78
62111;BME280;48102;47.526;19.072;2023-08-24T08:11:49;100570.13;;;28.27;69.42
62111;BME280;48102;47.526;19.072;2023-08-24T08:14:53;100567.62;;;28.26;67.07
62111;BME280;48102;47.526;19.072;2023-08-24T08:17:55;100568.38;;;28.35;67.16
62111;BME280;48102;47.526;19.072;2023-08-24T08:21:00;100571.75;;;28.37;58.88
62111;BME280;48102;47.526;19.072;2023-08-24T08:24:03;100569.16;;;28.43;64.13
62111;BME280;48102;47.526;19.072;2023-08-24T08:27:06;100577.47;;;28.57;61.48
62111;BME280;48102;47.526;19.072;2023-08-24T08:30:09;100581.69;;;28.59;62.96
62111;BME280;48102;47.526;19.072;2023-08-24T08:33:12;100576.72;;;28.63;61.62
62111;BME280;48102;47.526;19.072;2023-08-24T08:36:15;100571.63;;;28.74;57.70
62111;BME280;48102;47.526;19.072;2023-08-24T08:39:18;100576.50;;;28.79;58.79
62111;BME280;48102;47.526;19.072;2023-08-24T08:42:21;100570.78;;;28.89;60.64
62111;BME280;48102;47.526;19.072;2023-08-24T08:45:28;100581.19;;;28.85;57.63
62111;BME280;48102;47.526;19.072;2023-08-24T08:48:32;100579.94;;;28.88;57.87
62111;BME280;48102;47.526;19.072;2023-08-24T08:51:36;100573.28;;;29.05;59.24
62111;BME280;48102;47.526;19.072;2023-08-24T08:54:39;100573.75;;;29.09;57.95
62111;BME280;48102;47.526;19.072;2023-08-24T08:57:43;100569.25;;;29.16;57.79
62111;BME280;48102;47.526;19.072;2023-08-24T09:00:47;100564.00;;;29.14;58.52
62111;BME280;48102;47.526;19.072;2023-08-24T09:03:50;100560.31;;;29.22;58.58
62111;BME280;48102;47.526;19.072;2023-08-24T09:06:54;100553.94;;;29.30;55.56
62111;BME280;48102;47.526;19.072;2023-08-24T09:09:58;100561.88;;;29.31;56.26
62111;BME280;48102;47.526;19.072;2023-08-24T09:13:01;100555.16;;;29.27;57.86
62111;BME280;48102;47.526;19.072;2023-08-24T09:16:07;100552.72;;;29.32;59.09
62111;BME280;48102;47.526;19.072;2023-08-24T09:19:12;100556.06;;;29.34;59.36
62111;BME280;48102;47.526;19.072;2023-08-24T09:22:14;100547.09;;;29.34;58.91
62111;BME280;48102;47.526;19.072;2023-08-24T09:25:17;100554.44;;;29.40;58.11
62111;BME280;48102;47.526;19.072;2023-08-24T09:28:23;100540.94;;;29.46;57.84
62111;BME280;48102;47.526;19.072;2023-08-24T09:31:36;100542.31;;;29.57;56.98
62111;BME280;48102;47.526;19.072;2023-08-24T09:34:42;100540.38;;;29.72;56.09
62111;BME280;48102;47.526;19.072;2023-08-24T09:37:45;100538.87;;;29.98;57.34
62111;BME280;48102;47.526;19.072;2023-08-24T09:40:55;100541.97;;;29.88;54.39
62111;BME280;48102;47.526;19.072;2023-08-24T09:44:03;100537.50;;;29.81;53.75
62111;BME280;48102;47.526;19.072;2023-08-24T09:47:09;100537.75;;;29.86;53.49
62111;BME280;48102;47.526;19.072;2023-08-24T09:50:13;100536.06;;;30.13;52.28
62111;BME280;48102;47.526;19.072;2023-08-24T09:53:18;100535.81;;;30.08;52.30
62111;BME280;48102;47.526;19.072;2023-08-24T09:56:24;100529.16;;;30.10;50.77
62111;BME280;48102;47.526;19.072;2023-08-24T09:59:28;100531.50;;;29.92;55.68
62111;BME280;48102;47.526;19.072;2023-08-24T10:02:36;100534.25;;;30.20;51.47
62111;BME280;48102;47.526;19.072;2023-08-24T10:05:39;100525.69;;;30.64;50.93
62111;BME280;48102;47.526;19.072;2023-08-24T10:09:11;100531.78;;;30.66;50.23
62111;BME280;48102;47.526;19.072;2023-08-24T10:12:20;100530.94;;;30.66;50.60
62111;BME280;48102;47.526;19.072;2023-08-24T10:15:27;100521.31;;;30.70;50.58
62111;BME280;48102;47.526;19.072;2023-08-24T10:18:30;100517.63;;;30.91;49.27
62111;BME280;48102;47.526;19.072;2023-08-24T10:21:33;100528.16;;;31.07;49.34
62111;BME280;48102;47.526;19.072;2023-08-24T10:24:36;100519.59;;;31.17;50.52
62111;BME280;48102;47.526;19.072;2023-08-24T10:27:40;100523.22;;;31.51;51.06
62111;BME280;48102;47.526;19.072;2023-08-24T10:30:47;100514.59;;;31.73;47.60
62111;BME280;48102;47.526;19.072;2023-08-24T10:33:51;100519.66;;;31.57;46.67
62111;BME280;48102;47.526;19.072;2023-08-24T10:36:55;100504.78;;;31.53;47.73
62111;BME280;48102;47.526;19.072;2023-08-24T10:40:00;100502.47;;;31.36;47.37
62111;BME280;48102;47.526;19.072;2023-08-24T10:43:04;100489.00;;;31.21;45.00
62111;BME280;48102;47.526;19.072;2023-08-24T10:46:14;100486.12;;;31.30;45.44
62111;BME280;48102;47.526;19.072;2023-08-24T10:49:19;100479.00;;;31.42;44.04
62111;BME280;48102;47.526;19.072;2023-08-24T10:55:33;100481.53;;;31.57;44.69
62111;BME280;48102;47.526;19.072;2023-08-24T10:58:38;100482.75;;;31.81;44.47
62111;BME280;48102;47.526;19.072;2023-08-24T11:01:43;100481.69;;;31.82;42.16
62111;BME280;48102;47.526;19.072;2023-08-24T11:05:07;100480.87;;;31.94;42.41
62111;BME280;48102;47.526;19.072;2023-08-24T11:08:10;100482.03;;;32.25;41.51
62111;BME280;48102;47.526;19.072;2023-08-24T11:11:19;100470.84;;;32.46;41.87
62111;BME280;48102;47.526;19.072;2023-08-24T11:14:23;100485.09;;;32.55;39.90
62111;BME280;48102;47.526;19.072;2023-08-24T11:17:31;100485.44;;;32.72;41.77
62111;BME280;48102;47.526;19.072;2023-08-24T11:20:36;100469.59;;;32.56;40.26
62111;BME280;48102;47.526;19.072;2023-08-24T11:23:39;100471.19;;;32.63;40.41
62111;BME280;48102;47.526;19.072;2023-08-24T11:26:44;100467.47;;;32.89;38.99
62111;BME280;48102;47.526;19.072;2023-08-24T11:29:47;100463.91;;;32.95;40.86
62111;BME280;48102;47.526;19.072;2023-08-24T11:32:52;100466.66;;;32.89;41.07
62111;BME280;48102;47.526;19.072;2023-08-24T11:35:57;100469.47;;;33.07;40.91
62111;BME280;48102;47.526;19.072;2023-08-24T11:39:00;100466.03;;;33.25;41.22
62111;BME280;48102;47.526;19.072;2023-08-24T11:42:04;100464.59;;;33.48;38.92
62111;BME280;48102;47.526;19.072;2023-08-24T11:45:13;100455.56;;;33.40;39.81
62111;BME280;48102;47.526;19.072;2023-08-24T11:48:17;100453.44;;;33.49;38.54
62111;BME280;48102;47.526;19.072;2023-08-24T11:51:20;100462.00;;;33.78;38.82
62111;BME280;48102;47.526;19.072;2023-08-24T11:54:43;100457.59;;;33.95;38.30
62111;BME280;48102;47.526;19.072;2023-08-24T11:57:46;100463.28;;;33.93;37.37
62111;BME280;48102;47.526;19.072;2023-08-24T12:00:49;100459.38;;;34.26;36.78
62111;BME280;48102;47.526;19.072;2023-08-24T12:03:52;100462.31;;;34.61;36.18
62111;BME280;48102;47.526;19.072;2023-08-24T12:06:55;100450.97;;;34.88;35.56
62111;BME280;48102;47.526;19.072;2023-08-24T12:10:02;100449.16;;;35.12;34.84
62111;BME280;48102;47.526;19.072;2023-08-24T12:13:06;100434.03;;;34.98;35.28
62111;BME280;48102;47.526;19.072;2023-08-24T12:16:10;100441.94;;;35.29;33.95
62111;BME280;48102;47.526;19.072;2023-08-24T12:19:14;100444.28;;;35.14;33.96
62111;BME280;48102;47.526;19.072;2023-08-24T12:22:19;100438.94;;;35.31;33.55
62111;BME280;48102;47.526;19.072;2023-08-24T12:25:22;100427.09;;;36.24;33.51
62111;BME280;48102;47.526;19.072;2023-08-24T12:28:29;100426.25;;;36.92;31.26
62111;BME280;48102;47.526;19.072;2023-08-24T12:31:35;100425.88;;;38.34;29.48
62111;BME280;48102;47.526;19.072;2023-08-24T12:34:38;100422.34;;;40.04;28.56
62111;BME280;48102;47.526;19.072;2023-08-24T12:37:41;100417.03;;;41.68;26.09
62111;BME280;48102;47.526;19.072;2023-08-24T12:40:45;100419.50;;;43.76;23.22
62111;BME280;48102;47.526;19.072;2023-08-24T12:43:47;100408.00;;;45.34;21.91
62111;BME280;48102;47.526;19.072;2023-08-24T12:46:50;100410.34;;;47.40;20.42
62111;BME280;48102;47.526;19.072;2023-08-24T12:49:53;100396.81;;;48.31;19.29
62111;BME280;48102;47.526;19.072;2023-08-24T12:52:57;100396.37;;;48.81;19.87
62111;BME280;48102;47.526;19.072;2023-08-24T12:56:02;100388.97;;;49.49;18.37
62111;BME280;48102;47.526;19.072;2023-08-24T12:59:05;100390.94;;;50.29;17.56
62111;BME280;48102;47.526;19.072;2023-08-24T13:02:08;100382.38;;;51.12;16.56
62111;BME280;48102;47.526;19.072;2023-08-24T13:05:11;100376.81;;;51.98;17.51
62111;BME280;48102;47.526;19.072;2023-08-24T13:08:14;100368.63;;;51.93;16.49
62111;BME280;48102;47.526;19.072;2023-08-24T13:11:17;100366.69;;;52.90;15.57
62111;BME280;48102;47.526;19.072;2023-08-24T13:14:20;100368.50;;;53.61;15.67
62111;BME280;48102;47.526;19.072;2023-08-24T13:17:23;100361.88;;;53.54;15.41
62111;BME280;48102;47.526;19.072;2023-08-24T13:20:26;100352.56;;;54.04;14.12
62111;BME280;48102;47.526;19.072;2023-08-24T13:23:29;100352.03;;;54.76;14.58
62111;BME280;48102;47.526;19.072;2023-08-24T13:26:32;100356.41;;;54.74;15.28
62111;BME280;48102;47.526;19.072;2023-08-24T13:29:36;100350.62;;;54.47;13.44
62111;BME280;48102;47.526;19.072;2023-08-24T13:32:38;100342.31;;;54.16;14.55
62111;BME280;48102;47.526;19.072;2023-08-24T13:35:42;100333.78;;;52.94;16.48
62111;BME280;48102;47.526;19.072;2023-08-24T13:38:44;100333.03;;;53.60;15.38
62111;BME280;48102;47.526;19.072;2023-08-24T13:41:48;100338.03;;;54.83;14.45
62111;BME280;48102;47.526;19.072;2023-08-24T13:44:51;100339.00;;;54.91;14.29
62111;BME280;48102;47.526;19.072;2023-08-24T13:47:54;100332.13;;;54.69;12.97
62111;BME280;48102;47.526;19.072;2023-08-24T13:50:59;100321.75;;;54.34;13.51
62111;BME280;48102;47.526;19.072;2023-08-24T13:54:02;100321.84;;;54.38;14.40
62111;BME280;48102;47.526;19.072;2023-08-24T13:57:05;100329.69;;;55.37;13.84
62111;BME280;48102;47.526;19.072;2023-08-24T14:00:08;100318.91;;;56.02;13.61
62111;BME280;48102;47.526;19.072;2023-08-24T14:03:13;100316.06;;;55.72;12.97
62111;BME280;48102;47.526;19.072;2023-08-24T14:06:16;100312.97;;;56.11;13.25
62111;BME280;48102;47.526;19.072;2023-08-24T14:09:19;100306.00;;;56.05;12.45
62111;BME280;48102;47.526;19.072;2023-08-24T14:12:22;100318.13;;;56.36;13.11
62111;BME280;48102;47.526;19.072;2023-08-24T14:15:25;100308.53;;;55.53;14.53
62111;BME280;48102;47.526;19.072;2023-08-24T14:18:28;100294.78;;;55.25;14.26
62111;BME280;48102;47.526;19.072;2023-08-24T14:21:31;100283.63;;;53.15;14.87
62111;BME280;48102;47.526;19.072;2023-08-24T14:24:46;100278.34;;;49.85;15.25
62111;BME280;48102;47.526;19.072;2023-08-24T14:27:49;100266.66;;;45.86;20.78
62111;BME280;48102;47.526;19.072;2023-08-24T14:31:06;100256.06;;;43.69;22.03
62111;BME280;48102;47.526;19.072;2023-08-24T14:34:08;100263.09;;;42.90;23.20
62111;BME280;48102;47.526;19.072;2023-08-24T14:37:11;100254.56;;;42.52;23.06
62111;BME280;48102;47.526;19.072;2023-08-24T14:40:14;100251.69;;;42.67;21.23
62111;BME280;48102;47.526;19.072;2023-08-24T14:43:19;100254.13;;;44.78;20.85
62111;BME280;48102;47.526;19.072;2023-08-24T14:46:21;100256.34;;;47.47;19.17
62111;BME280;48102;47.526;19.072;2023-08-24T14:49:25;100258.34;;;49.06;16.78
62111;BME280;48102;47.526;19.072;2023-08-24T14:52:27;100268.22;;;51.16;16.48
62111;BME280;48102;47.526;19.072;2023-08-24T14:55:30;100268.69;;;52.52;15.58
62111;BME280;48102;47.526;19.072;2023-08-24T14:58:33;100264.03;;;53.03;13.87
62111;BME280;48102;47.526;19.072;2023-08-24T15:01:36;100266.50;;;53.75;14.29
62111;BME280;48102;47.526;19.072;2023-08-24T15:04:39;100275.56;;;54.85;13.55
62111;BME280;48102;47.526;19.072;2023-08-24T15:07:42;100271.75;;;55.23;13.54
62111;BME280;48102;47.526;19.072;2023-08-24T15:10:44;100264.97;;;54.17;13.61
62111;BME280;48102;47.526;19.072;2023-08-24T15:13:47;100271.53;;;54.86;13.61
62111;BME280;48102;47.526;19.072;2023-08-24T15:16:50;100279.22;;;55.95;13.02
62111;BME280;48102;47.526;19.072;2023-08-24T15:19:54;100283.53;;;55.55;13.79
62111;BME280;48102;47.526;19.072;2023-08-24T15:22:59;100268.59;;;53.78;14.50
62111;BME280;48102;47.526;19.072;2023-08-24T15:26:02;100267.63;;;54.71;13.38
62111;BME280;48102;47.526;19.072;2023-08-24T15:29:15;100264.78;;;55.17;14.01
62111;BME280;48102;47.526;19.072;2023-08-24T15:32:19;100265.03;;;55.62;13.49
62111;BME280;48102;47.526;19.072;2023-08-24T15:35:21;100248.72;;;54.10;13.92
62111;BME280;48102;47.526;19.072;2023-08-24T15:38:24;100251.31;;;54.19;14.28
62111;BME280;48102;47.526;19.072;2023-08-24T15:41:27;100252.06;;;54.58;14.23
62111;BME280;48102;47.526;19.072;2023-08-24T15:44:30;100246.97;;;53.47;14.85
62111;BME280;48102;47.526;19.072;2023-08-24T15:47:33;100240.31;;;50.17;16.88
62111;BME280;48102;47.526;19.072;2023-08-24T15:50:36;100228.25;;;45.60;19.39
62111;BME280;48102;47.526;19.072;2023-08-24T15:53:39;100217.63;;;42.32;23.10
62111;BME280;48102;47.526;19.072;2023-08-24T15:56:42;100224.72;;;40.24;25.52
62111;BME280;48102;47.526;19.072;2023-08-24T15:59:47;100215.44;;;38.25;26.67
62111;BME280;48102;47.526;19.072;2023-08-24T16:02:50;100218.19;;;37.05;29.14
62111;BME280;48102;47.526;19.072;2023-08-24T16:05:56;100217.13;;;35.76;29.94
62111;BME280;48102;47.526;19.072;2023-08-24T16:08:59;100197.63;;;34.97;31.13
62111;BME280;48102;47.526;19.072;2023-08-24T16:12:02;100201.75;;;34.41;32.56
62111;BME280;48102;47.526;19.072;2023-08-24T16:15:05;100199.97;;;33.93;33.67
62111;BME280;48102;47.526;19.072;2023-08-24T16:18:09;100204.66;;;33.44;34.72
62111;BME280;48102;47.526;19.072;2023-08-24T16:21:11;100205.00;;;33.11;34.55
62111;BME280;48102;47.526;19.072;2023-08-24T16:24:15;100210.94;;;32.64;35.55
62111;BME280;48102;47.526;19.072;2023-08-24T16:27:18;100205.72;;;32.31;36.87
62111;BME280;48102;47.526;19.072;2023-08-24T16:30:21;100216.44;;;32.01;37.58
62111;BME280;48102;47.526;19.072;2023-08-24T16:33:24;100215.72;;;31.74;37.91
62111;BME280;48102;47.526;19.072;2023-08-24T16:36:27;100210.00;;;31.44;37.80
